Time;durP1;ratioP1;P1;durP2;ratioP2;P2;SDS_P1;SDS_P2;PMS_P1;PMS_P2;Temp;Humidity;BMP_temperature;BMP_pressure;BME280_temperature;BME280_humidity;BME280_pressure;Samples;Min_cycle;Max_cycle;Signal;HPM_P1;HPM_P2
2023/07/25 00:00:59;;;;;;;21.40;16.20;;;;;;;;;;5079700;28;21340;-75
2023/07/25 00:03:24;;;;;;;19.15;14.95;;;;;;;;;;5075528;28;20032;-75
2023/07/25 00:05:50;;;;;;;17.30;14.43;;;;;;;;;;5078521;28;20394;-74
2023/07/25 00:08:15;;;;;;;20.70;15.63;;;;;;;;;;5080166;28;20027;-77
2023/07/25 00:10:41;;;;;;;17.25;15.45;;;;;;;;;;5073911;28;20020;-74
2023/07/25 00:13:06;;;;;;;22.30;16.38;;;;;;;;;;5078320;28;20404;-77
2023/07/25 00:15:31;;;;;;;16.10;13.93;;;;;;;;;;5079435;28;20024;-75
2023/07/25 00:17:57;;;;;;;16.55;14.48;;;;;;;;;;5079506;28;20522;-77
2023/07/25 00:20:22;;;;;;;18.15;13.98;;;;;;;;;;5079206;28;20048;-75
2023/07/25 00:22:47;;;;;;;20.55;14.77;;;;;;;;;;5079167;28;20031;-75
2023/07/25 00:25:13;;;;;;;16.73;13.55;;;;;;;;;;5087666;28;20027;-76
2023/07/25 00:27:38;;;;;;;24.23;15.93;;;;;;;;;;5079545;28;20340;-74
2023/07/25 00:30:04;;;;;;;21.63;15.20;;;;;;;;;;5078985;28;20031;-75
2023/07/25 00:32:29;;;;;;;16.98;15.20;;;;;;;;;;5082233;28;20055;-72
2023/07/25 00:34:55;;;;;;;17.55;14.60;;;;;;;;;;5082857;28;20032;-76
2023/07/25 00:37:20;;;;;;;16.55;14.30;;;;;;;;;;5097016;28;20092;-75
2023/07/25 00:39:45;;;;;;;16.88;15.00;;;;;;;;;;5080775;28;20031;-75
2023/07/25 00:42:11;;;;;;;20.15;13.88;;;;;;;;;;5083923;28;20028;-75
2023/07/25 00:44:36;;;;;;;20.13;13.63;;;;;;;;;;5088650;28;20039;-75
2023/07/25 00:47:01;;;;;;;14.80;13.07;;;;;;;;;;5086576;28;20062;-75
2023/07/25 00:49:27;;;;;;;26.25;17.65;;;;;;;;;;5094762;28;20051;-74
2023/07/25 00:51:52;;;;;;;21.42;15.55;;;;;;;;;;5087906;28;20377;-75
2023/07/25 00:54:18;;;;;;;20.98;15.23;;;;;;;;;;5080997;28;20030;-74
2023/07/25 00:56:43;;;;;;;17.10;14.63;;;;;;;;;;5097599;28;20035;-75
2023/07/25 00:59:08;;;;;;;21.55;15.48;;;;;;;;;;5095640;28;20035;-74
2023/07/25 01:01:34;;;;;;;19.70;14.52;;;;;;;;;;5097320;28;20035;-74
2023/07/25 01:03:59;;;;;;;19.55;14.63;;;;;;;;;;5094525;28;20175;-74
2023/07/25 01:06:25;;;;;;;19.70;14.77;;;;;;;;;;5092220;28;20077;-75
2023/07/25 01:08:51;;;;;;;17.30;14.10;;;;;;;;;;5080100;28;20523;-74
2023/07/25 01:11:16;;;;;;;15.93;13.80;;;;;;;;;;5091963;28;20922;-74
2023/07/25 01:13:42;;;;;;;17.40;15.27;;;;;;;;;;5096724;28;20055;-73
2023/07/25 01:16:09;;;;;;;20.60;14.57;;;;;;;;;;5095926;28;20341;-76
2023/07/25 01:18:35;;;;;;;22.85;13.95;;;;;;;;;;5082744;28;20446;-74
2023/07/25 01:21:01;;;;;;;19.50;14.43;;;;;;;;;;5081554;28;20024;-76
2023/07/25 01:23:26;;;;;;;17.73;14.57;;;;;;;;;;5085606;28;20031;-76
2023/07/25 01:25:52;;;;;;;16.73;14.23;;;;;;;;;;5091022;28;20040;-76
2023/07/25 01:28:17;;;;;;;16.02;12.95;;;;;;;;;;5095400;28;20487;-77
2023/07/25 01:30:42;;;;;;;15.68;12.82;;;;;;;;;;5096372;28;20028;-75
2023/07/25 01:33:08;;;;;;;15.02;12.93;;;;;;;;;;5097197;28;20363;-76
2023/07/25 01:35:33;;;;;;;16.38;14.52;;;;;;;;;;5096423;28;20116;-76
2023/07/25 01:37:58;;;;;;;18.88;13.73;;;;;;;;;;5095249;28;20446;-76
2023/07/25 01:40:24;;;;;;;20.65;14.45;;;;;;;;;;5085230;28;20426;-76
2023/07/25 01:42:49;;;;;;;18.98;13.40;;;;;;;;;;5097395;28;20036;-77
2023/07/25 01:45:14;;;;;;;18.60;14.23;;;;;;;;;;5096817;28;20031;-76
2023/07/25 01:47:40;;;;;;;19.38;13.48;;;;;;;;;;5080247;28;20621;-76
2023/07/25 01:50:05;;;;;;;15.52;12.23;;;;;;;;;;5083070;28;20490;-75
2023/07/25 01:52:31;;;;;;;16.25;12.57;;;;;;;;;;5094839;28;20027;-76
2023/07/25 01:54:56;;;;;;;16.42;12.10;;;;;;;;;;5085734;28;20076;-76
2023/07/25 01:57:22;;;;;;;19.25;12.35;;;;;;;;;;5095210;28;20385;-77
2023/07/25 01:59:47;;;;;;;15.30;13.02;;;;;;;;;;5080948;28;20055;-75
2023/07/25 02:02:13;;;;;;;18.58;12.85;;;;;;;;;;5083485;27;20015;-76
2023/07/25 02:04:38;;;;;;;17.75;12.38;;;;;;;;;;5092402;28;20118;-75
2023/07/25 02:07:03;;;;;;;17.02;12.63;;;;;;;;;;5098975;28;20027;-75
2023/07/25 02:09:29;;;;;;;15.10;11.93;;;;;;;;;;5097348;28;20035;-76
2023/07/25 02:11:54;;;;;;;15.95;12.65;;;;;;;;;;5089093;28;20028;-76
2023/07/25 02:14:19;;;;;;;16.50;11.88;;;;;;;;;;5094805;28;20023;-74
2023/07/25 02:16:45;;;;;;;18.13;11.95;;;;;;;;;;5082143;28;20722;-75
2023/07/25 02:19:10;;;;;;;15.98;11.32;;;;;;;;;;5084780;28;20093;-75
2023/07/25 02:21:35;;;;;;;18.15;12.93;;;;;;;;;;5086571;28;20031;-75
2023/07/25 02:24:01;;;;;;;16.23;14.07;;;;;;;;;;5082164;28;20028;-75
2023/07/25 02:26:26;;;;;;;16.25;13.00;;;;;;;;;;5083402;28;20028;-76
2023/07/25 02:28:51;;;;;;;17.85;12.43;;;;;;;;;;5100475;28;20438;-75
2023/07/25 02:31:17;;;;;;;19.85;12.40;;;;;;;;;;5091356;28;20024;-74
2023/07/25 02:33:43;;;;;;;14.32;12.73;;;;;;;;;;5095566;28;20126;-76
2023/07/25 02:36:08;;;;;;;16.02;12.55;;;;;;;;;;5098133;28;20122;-75
2023/07/25 02:38:34;;;;;;;15.10;12.57;;;;;;;;;;5089536;28;20040;-74
2023/07/25 02:40:59;;;;;;;15.43;12.60;;;;;;;;;;5095613;28;20446;-74
2023/07/25 02:43:24;;;;;;;15.82;13.27;;;;;;;;;;5092123;28;20334;-75
2023/07/25 02:45:53;;;;;;;16.70;12.90;;;;;;;;;;5092889;28;20039;-74
2023/07/25 02:48:19;;;;;;;15.95;11.90;;;;;;;;;;5097393;28;20020;-75
2023/07/25 02:50:44;;;;;;;15.48;12.38;;;;;;;;;;5096834;28;20157;-75
2023/07/25 02:53:09;;;;;;;19.58;12.98;;;;;;;;;;5097866;28;20057;-75
2023/07/25 02:55:36;;;;;;;15.57;12.30;;;;;;;;;;5096010;28;20182;-75
2023/07/25 02:58:01;;;;;;;16.17;13.00;;;;;;;;;;5096458;28;20098;-75
2023/07/25 03:00:26;;;;;;;16.30;13.48;;;;;;;;;;5085565;27;20096;-76
2023/07/25 03:02:52;;;;;;;16.73;12.77;;;;;;;;;;5101662;27;20118;-76
2023/07/25 03:05:17;;;;;;;17.00;13.15;;;;;;;;;;5098501;28;20069;-77
2023/07/25 03:07:43;;;;;;;18.65;12.27;;;;;;;;;;5088045;28;20024;-73
2023/07/25 03:10:09;;;;;;;18.77;13.10;;;;;;;;;;5086519;28;20028;-74
2023/07/25 03:12:34;;;;;;;16.75;12.73;;;;;;;;;;5101263;28;20054;-75
2023/07/25 03:15:00;;;;;;;18.10;12.05;;;;;;;;;;5081032;28;20050;-76
2023/07/25 03:17:25;;;;;;;17.60;12.30;;;;;;;;;;5098958;28;20039;-75
2023/07/25 03:19:50;;;;;;;19.58;12.57;;;;;;;;;;5096367;28;20028;-74
2023/07/25 03:22:19;;;;;;;16.17;12.73;;;;;;;;;;5100093;28;20691;-76
2023/07/25 03:24:44;;;;;;;16.05;11.77;;;;;;;;;;5098248;28;20149;-75
2023/07/25 03:27:10;;;;;;;17.02;12.13;;;;;;;;;;5100724;28;20114;-74
2023/07/25 03:29:35;;;;;;;16.88;11.88;;;;;;;;;;5084164;28;20119;-74
2023/07/25 03:32:00;;;;;;;18.27;12.30;;;;;;;;;;5094117;28;20024;-75
2023/07/25 03:34:26;;;;;;;14.43;11.77;;;;;;;;;;5099796;28;20127;-75
2023/07/25 03:36:51;;;;;;;16.63;11.40;;;;;;;;;;5096007;28;20024;-75
2023/07/25 03:39:16;;;;;;;14.77;12.60;;;;;;;;;;5094278;28;20040;-76
2023/07/25 03:41:42;;;;;;;15.85;12.77;;;;;;;;;;5097857;28;20019;-74
2023/07/25 03:44:07;;;;;;;18.52;13.30;;;;;;;;;;5088923;28;20031;-75
2023/07/25 03:46:32;;;;;;;20.83;13.52;;;;;;;;;;5092849;28;20020;-75
2023/07/25 03:48:58;;;;;;;21.08;14.00;;;;;;;;;;5097118;28;20520;-75
2023/07/25 03:51:23;;;;;;;21.10;14.23;;;;;;;;;;5085232;28;20354;-74
2023/07/25 03:53:49;;;;;;;25.73;15.43;;;;;;;;;;5096397;28;20103;-74
2023/07/25 03:56:14;;;;;;;17.83;12.90;;;;;;;;;;5098473;28;20164;-74
2023/07/25 03:58:39;;;;;;;19.85;14.15;;;;;;;;;;5089160;28;20102;-73
2023/07/25 04:01:05;;;;;;;27.52;14.18;;;;;;;;;;5088947;28;20114;-74
2023/07/25 04:03:30;;;;;;;39.17;20.70;;;;;;;;;;5094230;27;20443;-74
2023/07/25 04:05:55;;;;;;;26.83;17.77;;;;;;;;;;5091292;28;20335;-75
2023/07/25 04:08:21;;;;;;;24.80;15.32;;;;;;;;;;5089763;28;20399;-77
2023/07/25 04:10:46;;;;;;;26.25;15.43;;;;;;;;;;5087460;28;20028;-75
2023/07/25 04:13:11;;;;;;;20.27;14.32;;;;;;;;;;5097205;28;20037;-75
2023/07/25 04:15:37;;;;;;;20.08;14.43;;;;;;;;;;5092848;27;20177;-73
2023/07/25 04:18:02;;;;;;;23.40;16.25;;;;;;;;;;5087807;28;20039;-75
2023/07/25 04:20:28;;;;;;;22.45;15.18;;;;;;;;;;5082815;28;20061;-75
2023/07/25 04:22:53;;;;;;;19.25;14.45;;;;;;;;;;5097522;28;20316;-74
2023/07/25 04:25:18;;;;;;;18.15;13.25;;;;;;;;;;5088208;28;20019;-75
2023/07/25 04:27:44;;;;;;;16.88;12.80;;;;;;;;;;5082465;28;20030;-75
2023/07/25 04:30:09;;;;;;;21.50;14.38;;;;;;;;;;5076453;28;20039;-75
2023/07/25 04:32:35;;;;;;;27.42;16.73;;;;;;;;;;5081934;28;20502;-75
2023/07/25 04:35:00;;;;;;;22.85;14.93;;;;;;;;;;5076364;28;20016;-75
2023/07/25 04:37:25;;;;;;;66.35;43.13;;;;;;;;;;5082352;28;20037;-74
2023/07/25 04:39:51;;;;;;;81.53;49.40;;;;;;;;;;5077239;28;20036;-74
2023/07/25 04:42:17;;;;;;;74.63;51.53;;;;;;;;;;5080782;28;20044;-74
2023/07/25 04:44:43;;;;;;;28.73;22.02;;;;;;;;;;5082674;28;20095;-74
2023/07/25 04:47:09;;;;;;;20.35;14.20;;;;;;;;;;5083106;28;20107;-73
2023/07/25 04:49:34;;;;;;;17.83;13.30;;;;;;;;;;5092389;28;20123;-74
2023/07/25 04:51:59;;;;;;;23.25;15.18;;;;;;;;;;5095292;28;20111;-70
2023/07/25 04:54:24;;;;;;;23.80;14.77;;;;;;;;;;5096294;28;20067;-73
2023/07/25 04:56:50;;;;;;;18.95;13.25;;;;;;;;;;5094191;28;20151;-74
2023/07/25 04:59:15;;;;;;;25.05;15.43;;;;;;;;;;5082526;28;20051;-75
2023/07/25 05:01:40;;;;;;;18.65;14.40;;;;;;;;;;5075751;28;20446;-74
2023/07/25 05:04:06;;;;;;;17.65;14.18;;;;;;;;;;5082553;28;20034;-74
2023/07/25 05:06:31;;;;;;;27.88;15.95;;;;;;;;;;5084172;28;20068;-75
2023/07/25 05:08:56;;;;;;;18.92;15.15;;;;;;;;;;5094418;28;20036;-75
2023/07/25 05:11:22;;;;;;;19.13;16.05;;;;;;;;;;5099080;28;20042;-76
2023/07/25 05:13:47;;;;;;;19.63;13.75;;;;;;;;;;5098575;28;20032;-75
2023/07/25 05:16:12;;;;;;;21.35;13.02;;;;;;;;;;5096442;28;20027;-75
2023/07/25 05:18:38;;;;;;;16.63;13.80;;;;;;;;;;5082773;28;20023;-75
2023/07/25 05:21:03;;;;;;;19.40;14.02;;;;;;;;;;5091645;28;20114;-76
2023/07/25 05:23:28;;;;;;;18.23;14.15;;;;;;;;;;5098771;28;20216;-76
2023/07/25 05:25:54;;;;;;;18.25;12.65;;;;;;;;;;5098142;28;20059;-75
2023/07/25 05:28:19;;;;;;;18.00;12.63;;;;;;;;;;5097935;28;20031;-74
2023/07/25 05:30:44;;;;;;;18.50;12.27;;;;;;;;;;5083731;28;20062;-76
2023/07/25 05:33:10;;;;;;;18.38;13.48;;;;;;;;;;5084171;28;20032;-75
2023/07/25 05:35:35;;;;;;;25.10;13.80;;;;;;;;;;5085724;28;20020;-74
2023/07/25 05:38:01;;;;;;;20.15;12.57;;;;;;;;;;5083695;27;20533;-77
2023/07/25 05:40:27;;;;;;;19.20;12.77;;;;;;;;;;5088149;28;20101;-76
2023/07/25 05:42:52;;;;;;;19.38;12.27;;;;;;;;;;5083751;28;21087;-77
2023/07/25 05:45:17;;;;;;;18.42;12.80;;;;;;;;;;5084703;28;20023;-76
2023/07/25 05:47:43;;;;;;;14.98;11.60;;;;;;;;;;5087316;28;20443;-76
2023/07/25 05:50:08;;;;;;;20.48;13.85;;;;;;;;;;5079195;27;20020;-75
2023/07/25 05:52:34;;;;;;;22.60;16.13;;;;;;;;;;5080938;28;20032;-77
2023/07/25 05:54:59;;;;;;;18.92;13.80;;;;;;;;;;5084764;28;20450;-75
2023/07/25 05:57:24;;;;;;;19.15;13.43;;;;;;;;;;5087875;28;20397;-73
2023/07/25 05:59:50;;;;;;;17.05;11.73;;;;;;;;;;5085502;28;20106;-74
2023/07/25 06:02:16;;;;;;;18.58;11.18;;;;;;;;;;5087205;27;20024;-74
2023/07/25 06:04:43;;;;;;;16.77;11.75;;;;;;;;;;5100831;27;20019;-73
2023/07/25 06:07:08;;;;;;;18.75;10.77;;;;;;;;;;5087598;28;20084;-73
2023/07/25 06:09:33;;;;;;;15.57;10.50;;;;;;;;;;5098954;28;20126;-72
2023/07/25 06:11:59;;;;;;;15.35;9.90;;;;;;;;;;5100006;27;20039;-75
2023/07/25 06:14:24;;;;;;;18.30;10.45;;;;;;;;;;5100365;28;20472;-75
2023/07/25 06:16:50;;;;;;;13.73;10.63;;;;;;;;;;5095371;28;20042;-75
2023/07/25 06:19:15;;;;;;;15.18;10.30;;;;;;;;;;5099747;28;20041;-75
2023/07/25 06:21:41;;;;;;;14.63;10.07;;;;;;;;;;5089396;28;20027;-74
2023/07/25 06:24:06;;;;;;;16.25;10.95;;;;;;;;;;5097430;28;20027;-75
2023/07/25 06:26:32;;;;;;;15.15;10.65;;;;;;;;;;5100017;28;20343;-76
2023/07/25 06:28:57;;;;;;;16.05;10.18;;;;;;;;;;5100372;28;20155;-76
2023/07/25 06:31:22;;;;;;;15.30;10.82;;;;;;;;;;5100846;28;20115;-75
2023/07/25 06:33:48;;;;;;;17.20;11.07;;;;;;;;;;5087253;28;20035;-75
2023/07/25 06:36:13;;;;;;;14.15;10.88;;;;;;;;;;5092864;28;20028;-76
2023/07/25 06:38:38;;;;;;;14.70;10.50;;;;;;;;;;5090732;28;20356;-77
2023/07/25 06:41:04;;;;;;;17.20;9.98;;;;;;;;;;5080895;28;20481;-76
2023/07/25 06:43:29;;;;;;;16.38;10.85;;;;;;;;;;5093955;28;20399;-75
2023/07/25 06:45:54;;;;;;;15.82;10.45;;;;;;;;;;5086550;28;20445;-74
2023/07/25 06:48:20;;;;;;;14.75;9.10;;;;;;;;;;5097580;28;23362;-74
2023/07/25 06:50:45;;;;;;;15.68;10.40;;;;;;;;;;5087928;28;20027;-75
2023/07/25 06:53:11;;;;;;;14.15;9.68;;;;;;;;;;5083543;28;20074;-74
2023/07/25 06:55:39;;;;;;;14.38;9.82;;;;;;;;;;5085374;28;20020;-75
2023/07/25 06:58:04;;;;;;;15.37;9.17;;;;;;;;;;5098389;28;20118;-75
2023/07/25 07:00:30;;;;;;;19.85;9.95;;;;;;;;;;5096324;28;20134;-77
2023/07/25 07:02:55;;;;;;;16.17;9.70;;;;;;;;;;5083763;28;20055;-74
2023/07/25 07:05:21;;;;;;;13.45;9.23;;;;;;;;;;5093815;28;20039;-75
2023/07/25 07:07:46;;;;;;;16.15;9.13;;;;;;;;;;5102897;28;20020;-75
2023/07/25 07:10:11;;;;;;;15.27;9.73;;;;;;;;;;5097100;28;20035;-73
2023/07/25 07:12:42;;;;;;;13.05;9.25;;;;;;;;;;5100375;28;20110;-76
2023/07/25 07:15:07;;;;;;;14.93;9.57;;;;;;;;;;5100013;28;20027;-76
2023/07/25 07:17:33;;;;;;;16.85;9.52;;;;;;;;;;5097667;28;20028;-75
2023/07/25 07:20:00;;;;;;;14.15;8.75;;;;;;;;;;5096825;28;20110;-76
2023/07/25 07:22:25;;;;;;;16.00;9.35;;;;;;;;;;5094634;28;20669;-75
2023/07/25 07:24:51;;;;;;;12.77;9.18;;;;;;;;;;5087245;28;20028;-74
2023/07/25 07:27:19;;;;;;;13.20;9.60;;;;;;;;;;5088545;27;20015;-75
2023/07/25 07:29:45;;;;;;;16.17;8.40;;;;;;;;;;5082483;28;20435;-78
2023/07/25 07:32:10;;;;;;;14.07;9.32;;;;;;;;;;5097866;28;20096;-75
2023/07/25 07:34:35;;;;;;;15.68;9.00;;;;;;;;;;5100171;28;20027;-74
2023/07/25 07:37:01;;;;;;;15.85;9.57;;;;;;;;;;5096555;28;20032;-75
2023/07/25 07:39:26;;;;;;;13.70;9.00;;;;;;;;;;5085736;28;20046;-73
2023/07/25 07:41:52;;;;;;;16.33;9.50;;;;;;;;;;5086619;27;20107;-73
2023/07/25 07:44:17;;;;;;;18.52;8.95;;;;;;;;;;5082677;28;20024;-75
2023/07/25 07:46:42;;;;;;;17.65;9.77;;;;;;;;;;5088762;28;20346;-76
2023/07/25 07:49:08;;;;;;;15.27;8.88;;;;;;;;;;5085025;28;20492;-77
2023/07/25 07:51:34;;;;;;;13.10;8.18;;;;;;;;;;5082402;28;20039;-77
2023/07/25 07:53:59;;;;;;;16.55;8.70;;;;;;;;;;5082726;28;20024;-77
2023/07/25 07:56:24;;;;;;;16.80;9.35;;;;;;;;;;5085403;28;20035;-76
2023/07/25 07:58:50;;;;;;;19.50;9.45;;;;;;;;;;5077952;28;20438;-76
2023/07/25 08:01:16;;;;;;;15.30;9.13;;;;;;;;;;5081759;28;20011;-76
2023/07/25 08:03:43;;;;;;;15.85;8.85;;;;;;;;;;5092931;27;20023;-82
2023/07/25 08:06:08;;;;;;;17.13;10.05;;;;;;;;;;5091886;27;20016;-84
2023/07/25 08:08:33;;;;;;;19.27;10.88;;;;;;;;;;5091499;28;20115;-76
2023/07/25 08:10:59;;;;;;;15.75;10.15;;;;;;;;;;5093603;28;20030;-76
2023/07/25 08:13:24;;;;;;;18.23;9.57;;;;;;;;;;5093300;27;20020;-78
2023/07/25 08:15:49;;;;;;;16.25;9.15;;;;;;;;;;5092523;28;20031;-77
2023/07/25 08:18:15;;;;;;;16.70;8.65;;;;;;;;;;5092726;28;20031;-77
2023/07/25 08:20:40;;;;;;;16.52;9.15;;;;;;;;;;5093358;28;20031;-75
2023/07/25 08:23:06;;;;;;;15.20;8.55;;;;;;;;;;5095388;28;20341;-82
2023/07/25 08:25:31;;;;;;;11.65;8.23;;;;;;;;;;5096222;28;20027;-78
2023/07/25 08:27:56;;;;;;;14.73;8.57;;;;;;;;;;5096129;28;20030;-78
2023/07/25 08:30:22;;;;;;;18.33;8.48;;;;;;;;;;5097857;27;20590;-81
2023/07/25 08:32:47;;;;;;;17.52;8.35;;;;;;;;;;5090838;28;20035;-76
2023/07/25 08:35:13;;;;;;;15.63;8.30;;;;;;;;;;5092121;28;20430;-78
2023/07/25 08:37:38;;;;;;;15.38;8.85;;;;;;;;;;5095446;28;20195;-77
2023/07/25 08:40:04;;;;;;;13.52;8.32;;;;;;;;;;5092892;28;20038;-79
2023/07/25 08:42:31;;;;;;;17.08;8.07;;;;;;;;;;5093013;28;20072;-76
2023/07/25 08:44:56;;;;;;;15.85;8.10;;;;;;;;;;5092460;28;20068;-80
2023/07/25 08:47:25;;;;;;;17.17;8.70;;;;;;;;;;5091055;28;20024;-79
2023/07/25 08:49:52;;;;;;;17.00;7.93;;;;;;;;;;5098493;28;20027;-79
2023/07/25 08:52:19;;;;;;;17.45;8.20;;;;;;;;;;5095931;28;20452;-81
2023/07/25 08:54:46;;;;;;;20.90;8.60;;;;;;;;;;5096989;28;20078;-78
2023/07/25 08:57:12;;;;;;;17.60;8.38;;;;;;;;;;5096935;28;20383;-77
2023/07/25 08:59:37;;;;;;;16.25;8.05;;;;;;;;;;5102319;28;20066;-78
2023/07/25 09:02:03;;;;;;;16.05;8.15;;;;;;;;;;5099266;28;20028;-79
2023/07/25 09:04:28;;;;;;;21.60;8.68;;;;;;;;;;5101825;28;20114;-77
2023/07/25 09:06:53;;;;;;;13.43;8.35;;;;;;;;;;5099316;28;20046;-76
2023/07/25 09:09:19;;;;;;;14.70;7.88;;;;;;;;;;5099500;28;20036;-77
2023/07/25 09:11:45;;;;;;;20.35;7.97;;;;;;;;;;5104483;28;20016;-75
2023/07/25 09:14:10;;;;;;;18.35;8.43;;;;;;;;;;5098185;28;20350;-77
2023/07/25 09:16:36;;;;;;;15.85;7.88;;;;;;;;;;5101064;28;20064;-78
2023/07/25 09:19:01;;;;;;;18.65;8.32;;;;;;;;;;5098024;28;20045;-77
2023/07/25 09:21:27;;;;;;;14.23;7.88;;;;;;;;;;5101282;27;20442;-81
2023/07/25 09:23:53;;;;;;;13.88;7.82;;;;;;;;;;5099797;28;20142;-78
2023/07/25 09:26:21;;;;;;;16.50;7.50;;;;;;;;;;5101568;28;20035;-77
2023/07/25 09:28:50;;;;;;;14.25;7.40;;;;;;;;;;5100151;28;20020;-76
2023/07/25 09:31:16;;;;;;;16.50;7.43;;;;;;;;;;5099296;28;20027;-75
2023/07/25 09:33:41;;;;;;;14.48;6.82;;;;;;;;;;5102263;28;20027;-76
2023/07/25 09:36:07;;;;;;;17.80;6.70;;;;;;;;;;5100234;28;20119;-77
2023/07/25 09:38:33;;;;;;;13.88;7.03;;;;;;;;;;5098825;28;20039;-75
2023/07/25 09:41:01;;;;;;;15.07;6.68;;;;;;;;;;5103473;28;20039;-77
2023/07/25 09:43:27;;;;;;;17.17;6.43;;;;;;;;;;5099957;28;20042;-79
2023/07/25 09:45:53;;;;;;;12.93;6.10;;;;;;;;;;5103561;28;20559;-77
2023/07/25 09:48:19;;;;;;;16.48;6.03;;;;;;;;;;5100639;27;20027;-77
2023/07/25 09:50:44;;;;;;;18.52;6.40;;;;;;;;;;5100232;27;20028;-77
2023/07/25 09:53:11;;;;;;;17.17;6.60;;;;;;;;;;5099778;28;20027;-75
2023/07/25 09:55:36;;;;;;;14.98;6.03;;;;;;;;;;5100149;28;20771;-76
2023/07/25 09:58:01;;;;;;;15.35;5.95;;;;;;;;;;5100588;28;20095;-77
2023/07/25 10:00:27;;;;;;;18.05;6.18;;;;;;;;;;5099920;28;20089;-75
2023/07/25 10:02:53;;;;;;;17.33;6.65;;;;;;;;;;5100744;27;20513;-80
2023/07/25 10:05:18;;;;;;;13.68;6.50;;;;;;;;;;5101473;28;20042;-75
2023/07/25 10:07:44;;;;;;;17.38;6.97;;;;;;;;;;5097477;28;20447;-75
2023/07/25 10:10:09;;;;;;;15.60;6.88;;;;;;;;;;5096724;28;20536;-75
2023/07/25 10:12:35;;;;;;;16.52;6.90;;;;;;;;;;5104190;27;20016;-76
2023/07/25 10:15:00;;;;;;;18.77;6.97;;;;;;;;;;5099534;28;20035;-77
2023/07/25 10:17:26;;;;;;;15.73;6.53;;;;;;;;;;5097166;28;20027;-77
2023/07/25 10:19:52;;;;;;;17.23;7.13;;;;;;;;;;5098765;28;20036;-75
2023/07/25 10:22:31;;;;;;;17.08;6.50;;;;;;;;;;5098986;28;20062;-77
2023/07/25 10:24:57;;;;;;;16.45;6.53;;;;;;;;;;5098394;28;20032;-76
2023/07/25 10:27:22;;;;;;;16.92;6.72;;;;;;;;;;5100965;28;20422;-75
2023/07/25 10:29:48;;;;;;;13.07;6.60;;;;;;;;;;5099292;28;20028;-78
2023/07/25 10:32:14;;;;;;;16.77;6.03;;;;;;;;;;5096441;28;20030;-77
2023/07/25 10:34:46;;;;;;;15.27;6.50;;;;;;;;;;5099911;28;20027;-78
2023/07/25 10:37:21;;;;;;;12.52;6.13;;;;;;;;;;5100403;28;20032;-77
2023/07/25 10:40:00;;;;;;;16.58;6.50;;;;;;;;;;5099848;28;20463;-75
2023/07/25 10:42:34;;;;;;;12.95;5.35;;;;;;;;;;5102301;28;20107;-75
2023/07/25 10:44:59;;;;;;;16.05;5.88;;;;;;;;;;5100551;28;20031;-76
2023/07/25 10:47:54;;;;;;;20.42;6.80;;;;;;;;;;5094398;28;20031;-77
2023/07/25 10:50:24;;;;;;;18.88;6.68;;;;;;;;;;5081379;28;20047;-76
2023/07/25 10:52:49;;;;;;;15.23;6.35;;;;;;;;;;5100404;28;20438;-77
2023/07/25 10:55:15;;;;;;;17.95;5.95;;;;;;;;;;5099154;28;20024;-77
2023/07/25 10:57:40;;;;;;;16.13;6.75;;;;;;;;;;5101760;28;20055;-77
2023/07/25 11:00:10;;;;;;;17.85;5.88;;;;;;;;;;5100241;28;20035;-77
2023/07/25 11:02:36;;;;;;;10.48;5.90;;;;;;;;;;5097978;28;20355;-75
2023/07/25 11:05:14;;;;;;;12.50;5.93;;;;;;;;;;5095319;28;20119;-77
2023/07/25 11:07:40;;;;;;;16.23;6.63;;;;;;;;;;5096254;28;20379;-76
2023/07/25 11:10:06;;;;;;;20.10;6.43;;;;;;;;;;5098869;28;21102;-75
2023/07/25 11:12:31;;;;;;;15.43;6.22;;;;;;;;;;5099228;28;20058;-77
2023/07/25 11:14:57;;;;;;;15.55;6.80;;;;;;;;;;5098652;28;20423;-80
2023/07/25 11:17:26;;;;;;;11.73;6.15;;;;;;;;;;5099095;28;20483;-77
2023/07/25 11:19:52;;;;;;;13.05;5.70;;;;;;;;;;5099678;28;20089;-76
2023/07/25 11:22:17;;;;;;;19.45;5.50;;;;;;;;;;5099472;28;20023;-76
2023/07/25 11:24:43;;;;;;;15.63;5.50;;;;;;;;;;5097275;28;20027;-78
2023/07/25 11:27:09;;;;;;;21.23;7.03;;;;;;;;;;5099997;28;20047;-81
2023/07/25 11:29:34;;;;;;;13.23;6.45;;;;;;;;;;5100909;28;20027;-75
2023/07/25 11:32:00;;;;;;;14.60;6.28;;;;;;;;;;5099408;28;20023;-74
2023/07/25 11:34:26;;;;;;;17.00;6.20;;;;;;;;;;5100646;28;20024;-75
2023/07/25 11:36:51;;;;;;;16.08;5.82;;;;;;;;;;5099229;28;20023;-75
2023/07/25 11:39:18;;;;;;;14.90;6.07;;;;;;;;;;5094892;28;20082;-76
2023/07/25 11:41:44;;;;;;;18.33;6.22;;;;;;;;;;5097279;28;20094;-75
2023/07/25 11:44:11;;;;;;;12.13;5.68;;;;;;;;;;5099243;28;20024;-75
2023/07/25 11:46:37;;;;;;;12.30;6.30;;;;;;;;;;5094561;28;20316;-76
2023/07/25 11:49:03;;;;;;;15.27;5.63;;;;;;;;;;5098965;28;20381;-77
2023/07/25 11:51:29;;;;;;;16.50;6.22;;;;;;;;;;5098408;28;20063;-77
2023/07/25 11:53:55;;;;;;;13.95;6.15;;;;;;;;;;5096683;28;20086;-75
2023/07/25 11:56:20;;;;;;;16.17;5.70;;;;;;;;;;5095490;28;20079;-74
2023/07/25 11:58:50;;;;;;;14.82;5.82;;;;;;;;;;5098860;28;20249;-79
2023/07/25 12:01:15;;;;;;;11.73;6.03;;;;;;;;;;5099118;28;20105;-75
2023/07/25 12:03:48;;;;;;;13.75;5.30;;;;;;;;;;5097881;27;20064;-75
2023/07/25 12:06:14;;;;;;;15.02;6.22;;;;;;;;;;5096444;28;20031;-78
2023/07/25 12:08:40;;;;;;;13.70;5.45;;;;;;;;;;5098130;28;20089;-80
2023/07/25 12:11:13;;;;;;;16.77;6.30;;;;;;;;;;5094974;28;20035;-77
2023/07/25 12:13:57;;;;;;;17.40;6.70;;;;;;;;;;5095531;28;20030;-75
2023/07/25 12:16:23;;;;;;;14.05;6.07;;;;;;;;;;5094975;28;20127;-76
2023/07/25 12:18:51;;;;;;;16.17;6.65;;;;;;;;;;5097667;28;20109;-80
2023/07/25 12:21:36;;;;;;;14.13;5.57;;;;;;;;;;5097840;28;20109;-74
2023/07/25 12:24:06;;;;;;;12.40;6.10;;;;;;;;;;5116378;27;20062;-79
2023/07/25 12:26:47;;;;;;;18.40;6.72;;;;;;;;;;5094200;28;20350;-77
2023/07/25 12:29:14;;;;;;;13.27;6.55;;;;;;;;;;5096725;28;20092;-74
2023/07/25 12:31:39;;;;;;;18.55;6.35;;;;;;;;;;5093130;28;20483;-74
2023/07/25 12:34:05;;;;;;;15.55;6.18;;;;;;;;;;5098644;28;20060;-74
2023/07/25 12:36:30;;;;;;;23.38;6.60;;;;;;;;;;5097379;28;20445;-79
2023/07/25 12:38:56;;;;;;;15.10;6.68;;;;;;;;;;5096855;28;20426;-83
2023/07/25 12:41:22;;;;;;;16.65;6.78;;;;;;;;;;5098299;28;20027;-75
2023/07/25 12:43:48;;;;;;;23.90;7.18;;;;;;;;;;5095675;28;20084;-76
2023/07/25 12:46:13;;;;;;;23.38;7.25;;;;;;;;;;5087988;28;20393;-78
2023/07/25 12:48:39;;;;;;;15.15;6.05;;;;;;;;;;5089164;28;21120;-75
2023/07/25 12:51:04;;;;;;;17.48;6.30;;;;;;;;;;5098145;28;20112;-75
2023/07/25 12:53:30;;;;;;;18.10;6.65;;;;;;;;;;5098868;28;20465;-78
2023/07/25 12:55:55;;;;;;;17.80;6.22;;;;;;;;;;5098427;28;20077;-76
2023/07/25 12:58:21;;;;;;;19.58;6.10;;;;;;;;;;5084564;28;20028;-84
2023/07/25 13:00:46;;;;;;;17.48;6.47;;;;;;;;;;5095874;28;20157;-77
2023/07/25 13:03:12;;;;;;;25.05;7.88;;;;;;;;;;5086603;28;20189;-76
2023/07/25 13:05:37;;;;;;;17.38;6.88;;;;;;;;;;5091449;28;20039;-74
2023/07/25 13:08:02;;;;;;;16.55;6.60;;;;;;;;;;5085459;27;20099;-77
2023/07/25 13:10:29;;;;;;;19.08;7.20;;;;;;;;;;5082585;28;20116;-74
2023/07/25 13:12:54;;;;;;;14.45;6.53;;;;;;;;;;5087414;28;20036;-74
2023/07/25 13:15:19;;;;;;;14.80;6.72;;;;;;;;;;5087438;28;20639;-82
2023/07/25 13:17:45;;;;;;;16.45;6.97;;;;;;;;;;5091237;28;20446;-77
2023/07/25 13:20:10;;;;;;;15.85;6.78;;;;;;;;;;5081053;28;20051;-76
2023/07/25 13:22:36;;;;;;;15.52;7.15;;;;;;;;;;5079782;28;20148;-80
2023/07/25 13:25:02;;;;;;;16.77;6.95;;;;;;;;;;5080290;28;20073;-76
2023/07/25 13:27:28;;;;;;;11.68;6.32;;;;;;;;;;5085128;28;20343;-74
2023/07/25 13:29:54;;;;;;;18.65;6.53;;;;;;;;;;5080928;28;20032;-75
2023/07/25 13:32:19;;;;;;;12.80;7.05;;;;;;;;;;5080897;28;20031;-76
2023/07/25 13:34:45;;;;;;;14.55;6.75;;;;;;;;;;5079037;28;20024;-78
2023/07/25 13:37:11;;;;;;;15.40;6.57;;;;;;;;;;5085056;28;20024;-78
2023/07/25 13:39:36;;;;;;;21.98;7.18;;;;;;;;;;5081956;28;20402;-75
2023/07/25 13:42:01;;;;;;;15.88;6.93;;;;;;;;;;5084471;28;20439;-76
2023/07/25 13:44:27;;;;;;;11.63;6.55;;;;;;;;;;5081406;28;20032;-74
2023/07/25 13:46:52;;;;;;;15.32;6.80;;;;;;;;;;5086044;28;20016;-75
2023/07/25 13:49:17;;;;;;;14.20;6.43;;;;;;;;;;5082559;28;20504;-73
2023/07/25 13:51:43;;;;;;;13.48;7.03;;;;;;;;;;5088774;28;20026;-76
2023/07/25 13:54:08;;;;;;;14.77;6.95;;;;;;;;;;5086173;28;20031;-75
2023/07/25 13:56:33;;;;;;;18.40;6.70;;;;;;;;;;5084795;27;20038;-80
2023/07/25 13:58:59;;;;;;;16.02;6.60;;;;;;;;;;5086260;28;20452;-80
2023/07/25 14:01:24;;;;;;;17.95;6.85;;;;;;;;;;5088656;27;20418;-76
2023/07/25 14:03:50;;;;;;;14.50;6.70;;;;;;;;;;5085789;28;20070;-78
2023/07/25 14:06:15;;;;;;;18.15;6.65;;;;;;;;;;5081307;28;20111;-74
2023/07/25 14:08:40;;;;;;;12.38;6.15;;;;;;;;;;5085840;28;20032;-73
2023/07/25 14:11:06;;;;;;;16.70;7.22;;;;;;;;;;5083353;28;20102;-76
2023/07/25 14:13:31;;;;;;;16.63;6.65;;;;;;;;;;5084738;28;20112;-77
2023/07/25 14:15:59;;;;;;;19.42;7.07;;;;;;;;;;5088406;28;20031;-78